sensor_id;sensor_type;location;lat;lon;timestamp;temperature;humidity
5408;DHT22;2727;53.582;9.946;2022-07-21T00:00:55;24.10;67.00
5408;DHT22;2727;53.582;9.946;2022-07-21T00:01:54;24.10;67.00
5408;DHT22;2727;53.582;9.946;2022-07-21T00:02:53;24.10;67.00
5408;DHT22;2727;53.582;9.946;2022-07-21T00:03:52;24.00;66.90
5408;DHT22;2727;53.582;9.946;2022-07-21T00:04:50;24.00;66.90
5408;DHT22;2727;53.582;9.946;2022-07-21T00:05:49;24.00;66.90
5408;DHT22;2727;53.582;9.946;2022-07-21T00:06:47;24.10;67.00
5408;DHT22;2727;53.582;9.946;2022-07-21T00:07:46;24.10;67.00
5408;DHT22;2727;53.582;9.946;2022-07-21T00:08:45;24.10;67.00
5408;DHT22;2727;53.582;9.946;2022-07-21T00:09:43;24.10;67.00
5408;DHT22;2727;53.582;9.946;2022-07-21T00:10:42;24.10;67.00
5408;DHT22;2727;53.582;9.946;2022-07-21T00:11:41;24.00;66.90
5408;DHT22;2727;53.582;9.946;2022-07-21T00:12:40;24.10;67.00
5408;DHT22;2727;53.582;9.946;2022-07-21T00:13:38;24.10;67.00
5408;DHT22;2727;53.582;9.946;2022-07-21T00:14:37;24.10;67.00
5408;DHT22;2727;53.582;9.946;2022-07-21T00:15:35;24.00;66.90
5408;DHT22;2727;53.582;9.946;2022-07-21T00:16:34;24.10;67.00
5408;DHT22;2727;53.582;9.946;2022-07-21T00:17:32;24.10;67.00
5408;DHT22;2727;53.582;9.946;2022-07-21T00:18:32;24.00;66.90
5408;DHT22;2727;53.582;9.946;2022-07-21T00:19:30;24.10;67.10
5408;DHT22;2727;53.582;9.946;2022-07-21T00:20:29;24.10;67.10
5408;DHT22;2727;53.582;9.946;2022-07-21T00:21:28;24.00;67.10
5408;DHT22;2727;53.582;9.946;2022-07-21T00:22:27;24.00;67.10
5408;DHT22;2727;53.582;9.946;2022-07-21T00:23:26;24.10;67.10
5408;DHT22;2727;53.582;9.946;2022-07-21T00:24:24;24.00;67.00
5408;DHT22;2727;53.582;9.946;2022-07-21T00:25:23;24.00;67.00
5408;DHT22;2727;53.582;9.946;2022-07-21T00:26:22;24.00;67.00
5408;DHT22;2727;53.582;9.946;2022-07-21T00:27:20;24.10;67.10
5408;DHT22;2727;53.582;9.946;2022-07-21T00:28:19;24.00;67.00
5408;DHT22;2727;53.582;9.946;2022-07-21T00:29:17;24.00;67.00
5408;DHT22;2727;53.582;9.946;2022-07-21T00:30:16;24.00;67.10
5408;DHT22;2727;53.582;9.946;2022-07-21T00:31:15;24.10;67.20
5408;DHT22;2727;53.582;9.946;2022-07-21T00:32:13;24.00;67.10
5408;DHT22;2727;53.582;9.946;2022-07-21T00:33:12;24.10;67.20
5408;DHT22;2727;53.582;9.946;2022-07-21T00:34:10;24.00;67.10
5408;DHT22;2727;53.582;9.946;2022-07-21T00:35:09;24.00;67.10
5408;DHT22;2727;53.582;9.946;2022-07-21T00:36:08;24.00;67.10
5408;DHT22;2727;53.582;9.946;2022-07-21T00:37:06;24.00;67.10
5408;DHT22;2727;53.582;9.946;2022-07-21T00:38:05;24.00;67.10
5408;DHT22;2727;53.582;9.946;2022-07-21T00:39:03;24.00;67.20
5408;DHT22;2727;53.582;9.946;2022-07-21T00:40:02;24.00;67.10
5408;DHT22;2727;53.582;9.946;2022-07-21T00:41:01;24.00;67.10
5408;DHT22;2727;53.582;9.946;2022-07-21T00:42:01;24.00;67.10
5408;DHT22;2727;53.582;9.946;2022-07-21T00:43:00;24.00;67.20
5408;DHT22;2727;53.582;9.946;2022-07-21T00:43:58;24.00;67.20
5408;DHT22;2727;53.582;9.946;2022-07-21T00:44:57;24.00;67.20
5408;DHT22;2727;53.582;9.946;2022-07-21T00:45:56;24.00;67.20
5408;DHT22;2727;53.582;9.946;2022-07-21T00:46:54;24.00;67.20
5408;DHT22;2727;53.582;9.946;2022-07-21T00:47:53;24.00;67.20
5408;DHT22;2727;53.582;9.946;2022-07-21T00:48:52;24.00;67.20
5408;DHT22;2727;53.582;9.946;2022-07-21T00:49:50;24.00;67.20
5408;DHT22;2727;53.582;9.946;2022-07-21T00:50:49;24.00;67.20
5408;DHT22;2727;53.582;9.946;2022-07-21T00:51:47;24.00;67.20
5408;DHT22;2727;53.582;9.946;2022-07-21T00:52:47;24.00;67.20
5408;DHT22;2727;53.582;9.946;2022-07-21T00:53:45;24.00;67.20
5408;DHT22;2727;53.582;9.946;2022-07-21T00:54:44;24.00;67.20
5408;DHT22;2727;53.582;9.946;2022-07-21T00:55:43;24.00;67.20
5408;DHT22;2727;53.582;9.946;2022-07-21T00:56:42;24.00;67.20
5408;DHT22;2727;53.582;9.946;2022-07-21T00:57:40;24.00;67.20
5408;DHT22;2727;53.582;9.946;2022-07-21T00:58:40;24.00;67.20
5408;DHT22;2727;53.582;9.946;2022-07-21T00:59:38;24.00;67.20
5408;DHT22;2727;53.582;9.946;2022-07-21T01:00:38;24.00;67.20
5408;DHT22;2727;53.582;9.946;2022-07-21T01:01:37;24.00;67.30
5408;DHT22;2727;53.582;9.946;2022-07-21T01:02:36;24.00;67.20
5408;DHT22;2727;53.582;9.946;2022-07-21T01:03:35;24.00;67.20
5408;DHT22;2727;53.582;9.946;2022-07-21T01:04:33;24.00;67.20
5408;DHT22;2727;53.582;9.946;2022-07-21T01:05:32;24.00;67.20
5408;DHT22;2727;53.582;9.946;2022-07-21T01:06:30;24.00;67.30
5408;DHT22;2727;53.582;9.946;2022-07-21T01:07:29;24.00;67.30
5408;DHT22;2727;53.582;9.946;2022-07-21T01:08:27;24.00;67.30
5408;DHT22;2727;53.582;9.946;2022-07-21T01:09:26;24.00;67.30
5408;DHT22;2727;53.582;9.946;2022-07-21T01:10:26;24.00;67.30
5408;DHT22;2727;53.582;9.946;2022-07-21T01:11:24;24.00;67.30
5408;DHT22;2727;53.582;9.946;2022-07-21T01:12:23;24.00;67.30
5408;DHT22;2727;53.582;9.946;2022-07-21T01:13:21;24.00;67.30
5408;DHT22;2727;53.582;9.946;2022-07-21T01:14:20;24.00;67.30
5408;DHT22;2727;53.582;9.946;2022-07-21T01:15:19;24.00;67.30
5408;DHT22;2727;53.582;9.946;2022-07-21T01:16:17;24.00;67.30
5408;DHT22;2727;53.582;9.946;2022-07-21T01:17:16;24.00;67.40
5408;DHT22;2727;53.582;9.946;2022-07-21T01:24:23;24.00;67.40
5408;DHT22;2727;53.582;9.946;2022-07-21T01:25:21;24.00;67.50
5408;DHT22;2727;53.582;9.946;2022-07-21T01:26:20;24.00;67.40
5408;DHT22;2727;53.582;9.946;2022-07-21T01:27:18;24.00;67.40
5408;DHT22;2727;53.582;9.946;2022-07-21T01:28:17;24.00;67.40
5408;DHT22;2727;53.582;9.946;2022-07-21T01:29:15;24.00;67.40
5408;DHT22;2727;53.582;9.946;2022-07-21T01:30:15;24.00;67.50
5408;DHT22;2727;53.582;9.946;2022-07-21T01:31:14;24.00;67.50
5408;DHT22;2727;53.582;9.946;2022-07-21T01:32:12;24.00;67.50
5408;DHT22;2727;53.582;9.946;2022-07-21T01:33:10;24.00;67.50
5408;DHT22;2727;53.582;9.946;2022-07-21T01:34:09;24.00;67.50
5408;DHT22;2727;53.582;9.946;2022-07-21T01:35:09;24.00;67.50
5408;DHT22;2727;53.582;9.946;2022-07-21T01:36:08;24.00;67.50
5408;DHT22;2727;53.582;9.946;2022-07-21T01:37:07;24.00;67.60
5408;DHT22;2727;53.582;9.946;2022-07-21T01:38:05;24.00;67.50
5408;DHT22;2727;53.582;9.946;2022-07-21T01:39:24;24.00;67.50
5408;DHT22;2727;53.582;9.946;2022-07-21T01:40:41;24.00;67.50
5408;DHT22;2727;53.582;9.946;2022-07-21T01:41:58;24.00;67.60
5408;DHT22;2727;53.582;9.946;2022-07-21T01:42:57;24.00;67.50
5408;DHT22;2727;53.582;9.946;2022-07-21T01:43:56;24.00;68.20
5408;DHT22;2727;53.582;9.946;2022-07-21T01:44:54;24.00;67.60
5408;DHT22;2727;53.582;9.946;2022-07-21T01:45:55;24.00;67.70
5408;DHT22;2727;53.582;9.946;2022-07-21T01:46:54;24.00;67.70
5408;DHT22;2727;53.582;9.946;2022-07-21T01:47:52;24.00;67.70
5408;DHT22;2727;53.582;9.946;2022-07-21T01:48:51;24.00;67.70
5408;DHT22;2727;53.582;9.946;2022-07-21T01:49:49;24.00;67.70
5408;DHT22;2727;53.582;9.946;2022-07-21T01:50:48;24.00;67.70
5408;DHT22;2727;53.582;9.946;2022-07-21T01:51:46;23.90;67.60
5408;DHT22;2727;53.582;9.946;2022-07-21T01:52:45;24.00;67.70
5408;DHT22;2727;53.582;9.946;2022-07-21T01:53:44;23.90;67.60
5408;DHT22;2727;53.582;9.946;2022-07-21T01:54:42;24.00;67.70
5408;DHT22;2727;53.582;9.946;2022-07-21T01:55:41;23.90;67.70
5408;DHT22;2727;53.582;9.946;2022-07-21T01:56:39;24.00;67.70
5408;DHT22;2727;53.582;9.946;2022-07-21T01:57:38;24.00;67.70
5408;DHT22;2727;53.582;9.946;2022-07-21T01:58:36;23.90;67.70
5408;DHT22;2727;53.582;9.946;2022-07-21T01:59:35;24.00;67.80
5408;DHT22;2727;53.582;9.946;2022-07-21T02:00:33;23.90;67.70
5408;DHT22;2727;53.582;9.946;2022-07-21T02:01:32;23.90;67.70
5408;DHT22;2727;53.582;9.946;2022-07-21T02:02:31;23.90;67.70
5408;DHT22;2727;53.582;9.946;2022-07-21T02:03:29;23.90;67.70
5408;DHT22;2727;53.582;9.946;2022-07-21T02:04:28;23.90;67.70
5408;DHT22;2727;53.582;9.946;2022-07-21T02:05:27;23.90;67.70
5408;DHT22;2727;53.582;9.946;2022-07-21T02:06:25;23.90;67.80
5408;DHT22;2727;53.582;9.946;2022-07-21T02:07:24;23.90;67.80
5408;DHT22;2727;53.582;9.946;2022-07-21T02:08:22;23.90;67.80
5408;DHT22;2727;53.582;9.946;2022-07-21T02:09:21;23.90;67.70
5408;DHT22;2727;53.582;9.946;2022-07-21T02:10:19;23.90;67.70
5408;DHT22;2727;53.582;9.946;2022-07-21T02:11:18;23.90;67.80
5408;DHT22;2727;53.582;9.946;2022-07-21T02:12:17;23.90;67.90
5408;DHT22;2727;53.582;9.946;2022-07-21T02:13:15;23.90;67.80
5408;DHT22;2727;53.582;9.946;2022-07-21T02:14:14;24.00;67.90
5408;DHT22;2727;53.582;9.946;2022-07-21T02:15:12;23.90;67.80
5408;DHT22;2727;53.582;9.946;2022-07-21T02:16:11;23.90;67.80
5408;DHT22;2727;53.582;9.946;2022-07-21T02:17:10;23.90;67.90
5408;DHT22;2727;53.582;9.946;2022-07-21T02:18:08;23.90;67.90
5408;DHT22;2727;53.582;9.946;2022-07-21T02:19:08;23.90;67.90
5408;DHT22;2727;53.582;9.946;2022-07-21T02:20:06;23.90;68.00
5408;DHT22;2727;53.582;9.946;2022-07-21T02:21:05;23.90;67.90
5408;DHT22;2727;53.582;9.946;2022-07-21T02:22:04;23.90;67.90
5408;DHT22;2727;53.582;9.946;2022-07-21T02:23:02;23.90;67.90
5408;DHT22;2727;53.582;9.946;2022-07-21T02:24:01;23.90;67.90
5408;DHT22;2727;53.582;9.946;2022-07-21T02:24:59;23.90;67.90
5408;DHT22;2727;53.582;9.946;2022-07-21T02:25:58;23.90;68.00
5408;DHT22;2727;53.582;9.946;2022-07-21T02:26:57;23.90;68.00
5408;DHT22;2727;53.582;9.946;2022-07-21T02:27:55;23.90;68.00
5408;DHT22;2727;53.582;9.946;2022-07-21T02:28:54;23.90;68.00
5408;DHT22;2727;53.582;9.946;2022-07-21T02:29:52;23.90;68.00
5408;DHT22;2727;53.582;9.946;2022-07-21T02:30:51;23.90;68.00
5408;DHT22;2727;53.582;9.946;2022-07-21T02:31:49;23.90;68.00
5408;DHT22;2727;53.582;9.946;2022-07-21T02:32:48;23.90;68.00
5408;DHT22;2727;53.582;9.946;2022-07-21T02:33:46;23.90;68.00
5408;DHT22;2727;53.582;9.946;2022-07-21T02:34:45;23.90;68.10
5408;DHT22;2727;53.582;9.946;2022-07-21T02:35:43;23.90;68.10
5408;DHT22;2727;53.582;9.946;2022-07-21T02:36:42;23.90;68.10
5408;DHT22;2727;53.582;9.946;2022-07-21T02:37:41;23.80;67.90
5408;DHT22;2727;53.582;9.946;2022-07-21T02:38:39;23.90;68.10
5408;DHT22;2727;53.582;9.946;2022-07-21T02:39:38;23.90;68.10
5408;DHT22;2727;53.582;9.946;2022-07-21T02:40:36;23.90;68.10
5408;DHT22;2727;53.582;9.946;2022-07-21T02:41:35;23.80;68.00
5408;DHT22;2727;53.582;9.946;2022-07-21T02:42:33;23.90;68.10
5408;DHT22;2727;53.582;9.946;2022-07-21T02:43:32;23.90;68.10
5408;DHT22;2727;53.582;9.946;2022-07-21T02:44:30;23.90;68.20
5408;DHT22;2727;53.582;9.946;2022-07-21T02:45:29;23.90;68.10
5408;DHT22;2727;53.582;9.946;2022-07-21T02:46:27;23.90;68.10
5408;DHT22;2727;53.582;9.946;2022-07-21T02:47:26;23.90;68.20
5408;DHT22;2727;53.582;9.946;2022-07-21T02:48:24;23.90;68.20
5408;DHT22;2727;53.582;9.946;2022-07-21T02:49:23;23.90;68.20
5408;DHT22;2727;53.582;9.946;2022-07-21T02:50:22;23.90;68.20
5408;DHT22;2727;53.582;9.946;2022-07-21T02:51:21;23.90;68.20
5408;DHT22;2727;53.582;9.946;2022-07-21T02:52:19;23.80;68.10
5408;DHT22;2727;53.582;9.946;2022-07-21T02:53:18;23.80;68.10
5408;DHT22;2727;53.582;9.946;2022-07-21T02:54:17;23.90;68.20
5408;DHT22;2727;53.582;9.946;2022-07-21T02:55:16;23.80;68.10
5408;DHT22;2727;53.582;9.946;2022-07-21T02:56:14;23.90;68.20
5408;DHT22;2727;53.582;9.946;2022-07-21T02:57:13;23.90;68.20
5408;DHT22;2727;53.582;9.946;2022-07-21T02:58:13;23.90;68.20
5408;DHT22;2727;53.582;9.946;2022-07-21T02:59:13;23.90;68.20
5408;DHT22;2727;53.582;9.946;2022-07-21T03:00:11;23.80;68.10
5408;DHT22;2727;53.582;9.946;2022-07-21T03:01:10;23.90;68.20
5408;DHT22;2727;53.582;9.946;2022-07-21T03:02:09;23.90;68.20
5408;DHT22;2727;53.582;9.946;2022-07-21T03:03:07;23.90;68.20
5408;DHT22;2727;53.582;9.946;2022-07-21T03:04:06;23.90;68.20
5408;DHT22;2727;53.582;9.946;2022-07-21T03:05:05;23.90;68.30
5408;DHT22;2727;53.582;9.946;2022-07-21T03:06:04;23.90;68.30
5408;DHT22;2727;53.582;9.946;2022-07-21T03:07:02;23.90;68.30
5408;DHT22;2727;53.582;9.946;2022-07-21T03:08:01;23.80;68.20
5408;DHT22;2727;53.582;9.946;2022-07-21T03:09:00;23.90;68.40
5408;DHT22;2727;53.582;9.946;2022-07-21T03:09:58;23.80;68.20
5408;DHT22;2727;53.582;9.946;2022-07-21T03:10:57;23.80;68.30
5408;DHT22;2727;53.582;9.946;2022-07-21T03:11:55;23.80;68.20
5408;DHT22;2727;53.582;9.946;2022-07-21T03:12:54;23.90;68.40
5408;DHT22;2727;53.582;9.946;2022-07-21T03:13:52;23.80;68.30
5408;DHT22;2727;53.582;9.946;2022-07-21T03:14:51;23.90;68.40
5408;DHT22;2727;53.582;9.946;2022-07-21T03:15:49;23.80;68.30
5408;DHT22;2727;53.582;9.946;2022-07-21T03:16:48;23.80;68.20
5408;DHT22;2727;53.582;9.946;2022-07-21T03:17:46;23.90;68.40
5408;DHT22;2727;53.582;9.946;2022-07-21T03:18:44;23.90;68.40
5408;DHT22;2727;53.582;9.946;2022-07-21T03:19:43;23.80;68.30
5408;DHT22;2727;53.582;9.946;2022-07-21T03:20:42;23.80;68.40
5408;DHT22;2727;53.582;9.946;2022-07-21T03:21:40;23.80;68.40
5408;DHT22;2727;53.582;9.946;2022-07-21T03:22:39;23.80;68.40
5408;DHT22;2727;53.582;9.946;2022-07-21T03:23:37;23.80;68.40
5408;DHT22;2727;53.582;9.946;2022-07-21T03:24:36;23.90;68.50
5408;DHT22;2727;53.582;9.946;2022-07-21T03:25:34;23.80;68.40
5408;DHT22;2727;53.582;9.946;2022-07-21T03:26:33;23.80;68.40
5408;DHT22;2727;53.582;9.946;2022-07-21T03:27:36;23.80;68.40
5408;DHT22;2727;53.582;9.946;2022-07-21T03:28:35;23.80;68.40
5408;DHT22;2727;53.582;9.946;2022-07-21T03:29:33;23.80;68.40
5408;DHT22;2727;53.582;9.946;2022-07-21T03:30:32;23.80;68.40
5408;DHT22;2727;53.582;9.946;2022-07-21T03:31:31;23.80;68.40
5408;DHT22;2727;53.582;9.946;2022-07-21T03:32:29;23.80;68.40
5408;DHT22;2727;53.582;9.946;2022-07-21T03:33:28;23.80;68.40
5408;DHT22;2727;53.582;9.946;2022-07-21T03:34:26;23.80;68.40
5408;DHT22;2727;53.582;9.946;2022-07-21T03:35:25;23.80;68.50
5408;DHT22;2727;53.582;9.946;2022-07-21T03:36:23;23.80;68.50
5408;DHT22;2727;53.582;9.946;2022-07-21T03:37:22;23.80;68.50
5408;DHT22;2727;53.582;9.946;2022-07-21T03:38:20;23.80;68.50
5408;DHT22;2727;53.582;9.946;2022-07-21T03:39:19;23.90;68.60
5408;DHT22;2727;53.582;9.946;2022-07-21T03:40:18;23.80;68.50
5408;DHT22;2727;53.582;9.946;2022-07-21T03:41:17;23.80;68.50
5408;DHT22;2727;53.582;9.946;2022-07-21T03:42:16;23.90;68.70
5408;DHT22;2727;53.582;9.946;2022-07-21T03:43:15;23.80;68.50
5408;DHT22;2727;53.582;9.946;2022-07-21T03:44:13;23.80;68.50
5408;DHT22;2727;53.582;9.946;2022-07-21T03:45:12;23.80;68.60
5408;DHT22;2727;53.582;9.946;2022-07-21T03:46:10;23.80;68.60
5408;DHT22;2727;53.582;9.946;2022-07-21T03:47:09;23.80;68.60
5408;DHT22;2727;53.582;9.946;2022-07-21T03:48:08;23.90;68.70
5408;DHT22;2727;53.582;9.946;2022-07-21T03:49:07;23.80;68.60
5408;DHT22;2727;53.582;9.946;2022-07-21T03:50:06;23.80;68.60
5408;DHT22;2727;53.582;9.946;2022-07-21T03:51:05;23.80;68.60
5408;DHT22;2727;53.582;9.946;2022-07-21T03:52:04;23.80;68.60
5408;DHT22;2727;53.582;9.946;2022-07-21T03:53:02;23.80;68.60
5408;DHT22;2727;53.582;9.946;2022-07-21T03:54:01;23.80;68.60
5408;DHT22;2727;53.582;9.946;2022-07-21T03:55:00;23.80;68.60
5408;DHT22;2727;53.582;9.946;2022-07-21T03:56:07;23.80;68.60
5408;DHT22;2727;53.582;9.946;2022-07-21T03:57:06;23.80;68.60
5408;DHT22;2727;53.582;9.946;2022-07-21T03:58:05;23.80;68.60
5408;DHT22;2727;53.582;9.946;2022-07-21T03:59:04;23.90;68.70
5408;DHT22;2727;53.582;9.946;2022-07-21T04:00:03;23.90;68.70
5408;DHT22;2727;53.582;9.946;2022-07-21T04:01:02;23.80;68.60
5408;DHT22;2727;53.582;9.946;2022-07-21T04:02:01;23.80;68.60
5408;DHT22;2727;53.582;9.946;2022-07-21T04:02:59;23.80;68.60
5408;DHT22;2727;53.582;9.946;2022-07-21T04:03:58;23.80;68.70
5408;DHT22;2727;53.582;9.946;2022-07-21T04:04:57;23.80;68.70
5408;DHT22;2727;53.582;9.946;2022-07-21T04:05:55;23.80;68.70
5408;DHT22;2727;53.582;9.946;2022-07-21T04:06:54;23.80;68.70
5408;DHT22;2727;53.582;9.946;2022-07-21T04:07:53;23.80;68.80
5408;DHT22;2727;53.582;9.946;2022-07-21T04:08:51;23.80;68.70
5408;DHT22;2727;53.582;9.946;2022-07-21T04:09:50;23.80;68.70
5408;DHT22;2727;53.582;9.946;2022-07-21T04:10:48;23.80;68.70
5408;DHT22;2727;53.582;9.946;2022-07-21T04:11:47;23.80;68.70
5408;DHT22;2727;53.582;9.946;2022-07-21T04:12:45;23.80;68.70
5408;DHT22;2727;53.582;9.946;2022-07-21T04:13:44;23.80;68.80
5408;DHT22;2727;53.582;9.946;2022-07-21T04:14:42;23.80;68.70
5408;DHT22;2727;53.582;9.946;2022-07-21T04:15:42;23.80;68.80
5408;DHT22;2727;53.582;9.946;2022-07-21T04:16:40;23.80;68.80
5408;DHT22;2727;53.582;9.946;2022-07-21T04:17:39;23.80;68.90
5408;DHT22;2727;53.582;9.946;2022-07-21T04:18:38;23.80;68.80
5408;DHT22;2727;53.582;9.946;2022-07-21T04:19:36;23.80;68.90
5408;DHT22;2727;53.582;9.946;2022-07-21T04:20:35;23.80;68.80
5408;DHT22;2727;53.582;9.946;2022-07-21T04:21:34;23.80;68.90
5408;DHT22;2727;53.582;9.946;2022-07-21T04:22:32;23.80;68.90
5408;DHT22;2727;53.582;9.946;2022-07-21T04:23:31;23.80;68.90
5408;DHT22;2727;53.582;9.946;2022-07-21T04:24:30;23.80;68.90
5408;DHT22;2727;53.582;9.946;2022-07-21T04:25:28;23.80;68.90
5408;DHT22;2727;53.582;9.946;2022-07-21T04:26:27;23.80;68.90
5408;DHT22;2727;53.582;9.946;2022-07-21T04:27:26;23.80;68.90
5408;DHT22;2727;53.582;9.946;2022-07-21T04:28:25;23.80;68.90
5408;DHT22;2727;53.582;9.946;2022-07-21T04:29:23;23.80;68.90
5408;DHT22;2727;53.582;9.946;2022-07-21T04:30:22;23.80;68.90
5408;DHT22;2727;53.582;9.946;2022-07-21T04:31:21;23.90;69.00
5408;DHT22;2727;53.582;9.946;2022-07-21T04:32:19;23.80;68.90
5408;DHT22;2727;53.582;9.946;2022-07-21T04:33:18;23.80;68.90
5408;DHT22;2727;53.582;9.946;2022-07-21T04:34:16;23.80;68.90
5408;DHT22;2727;53.582;9.946;2022-07-21T04:35:15;23.80;68.90
5408;DHT22;2727;53.582;9.946;2022-07-21T04:36:13;23.80;68.90
5408;DHT22;2727;53.582;9.946;2022-07-21T04:37:12;23.80;68.90
5408;DHT22;2727;53.582;9.946;2022-07-21T04:38:10;23.80;68.90
5408;DHT22;2727;53.582;9.946;2022-07-21T04:39:09;23.80;69.00
5408;DHT22;2727;53.582;9.946;2022-07-21T04:40:08;23.90;69.00
5408;DHT22;2727;53.582;9.946;2022-07-21T04:41:07;23.90;69.10
5408;DHT22;2727;53.582;9.946;2022-07-21T04:42:05;23.80;69.00
5408;DHT22;2727;53.582;9.946;2022-07-21T04:43:04;23.80;69.00
5408;DHT22;2727;53.582;9.946;2022-07-21T04:44:02;23.80;69.10
5408;DHT22;2727;53.582;9.946;2022-07-21T04:45:01;23.90;69.20
5408;DHT22;2727;53.582;9.946;2022-07-21T04:45:59;23.80;69.00
5408;DHT22;2727;53.582;9.946;2022-07-21T04:46:59;23.90;69.10
5408;DHT22;2727;53.582;9.946;2022-07-21T04:47:58;23.80;69.10
5408;DHT22;2727;53.582;9.946;2022-07-21T04:48:56;23.80;69.10
5408;DHT22;2727;53.582;9.946;2022-07-21T04:49:55;23.80;69.10
5408;DHT22;2727;53.582;9.946;2022-07-21T04:50:53;23.80;69.10
5408;DHT22;2727;53.582;9.946;2022-07-21T04:51:53;23.80;69.10
5408;DHT22;2727;53.582;9.946;2022-07-21T04:52:52;23.90;69.20
5408;DHT22;2727;53.582;9.946;2022-07-21T04:53:50;23.90;69.10
5408;DHT22;2727;53.582;9.946;2022-07-21T04:54:49;23.90;69.20
5408;DHT22;2727;53.582;9.946;2022-07-21T04:55:47;23.90;69.30
5408;DHT22;2727;53.582;9.946;2022-07-21T04:56:46;23.90;69.30
5408;DHT22;2727;53.582;9.946;2022-07-21T04:57:46;23.90;69.30
5408;DHT22;2727;53.582;9.946;2022-07-21T04:58:45;23.90;69.40
5408;DHT22;2727;53.582;9.946;2022-07-21T04:59:43;23.90;69.50
5408;DHT22;2727;53.582;9.946;2022-07-21T05:00:42;23.90;69.60
5408;DHT22;2727;53.582;9.946;2022-07-21T05:01:40;23.90;69.60
5408;DHT22;2727;53.582;9.946;2022-07-21T05:02:39;23.90;69.60
5408;DHT22;2727;53.582;9.946;2022-07-21T05:03:37;23.90;69.40
5408;DHT22;2727;53.582;9.946;2022-07-21T05:04:36;23.90;69.30
5408;DHT22;2727;53.582;9.946;2022-07-21T05:05:34;23.90;69.90
5408;DHT22;2727;53.582;9.946;2022-07-21T05:06:33;23.90;70.10
5408;DHT22;2727;53.582;9.946;2022-07-21T05:07:32;23.90;69.90
5408;DHT22;2727;53.582;9.946;2022-07-21T05:08:30;23.90;69.80
5408;DHT22;2727;53.582;9.946;2022-07-21T05:09:29;23.90;70.20
5408;DHT22;2727;53.582;9.946;2022-07-21T05:10:27;23.90;70.20
5408;DHT22;2727;53.582;9.946;2022-07-21T05:11:26;23.90;70.10
5408;DHT22;2727;53.582;9.946;2022-07-21T05:12:27;23.90;70.00
5408;DHT22;2727;53.582;9.946;2022-07-21T05:13:26;23.90;70.00
5408;DHT22;2727;53.582;9.946;2022-07-21T05:14:24;23.80;70.00
5408;DHT22;2727;53.582;9.946;2022-07-21T05:15:23;23.90;70.10
5408;DHT22;2727;53.582;9.946;2022-07-21T05:16:22;23.90;70.00
5408;DHT22;2727;53.582;9.946;2022-07-21T05:17:20;23.90;69.80
5408;DHT22;2727;53.582;9.946;2022-07-21T05:18:19;23.90;70.00
5408;DHT22;2727;53.582;9.946;2022-07-21T05:19:17;23.90;70.20
5408;DHT22;2727;53.582;9.946;2022-07-21T05:20:16;23.90;70.80
5408;DHT22;2727;53.582;9.946;2022-07-21T05:21:14;24.00;71.20
5408;DHT22;2727;53.582;9.946;2022-07-21T05:22:13;24.00;71.20
5408;DHT22;2727;53.582;9.946;2022-07-21T05:23:12;24.00;71.20
5408;DHT22;2727;53.582;9.946;2022-07-21T05:24:10;24.00;71.30
5408;DHT22;2727;53.582;9.946;2022-07-21T05:25:09;24.00;71.30
5408;DHT22;2727;53.582;9.946;2022-07-21T05:26:08;24.00;71.90
5408;DHT22;2727;53.582;9.946;2022-07-21T05:27:07;24.00;72.00
5408;DHT22;2727;53.582;9.946;2022-07-21T05:28:06;24.00;71.50
5408;DHT22;2727;53.582;9.946;2022-07-21T05:29:06;24.00;71.50
5408;DHT22;2727;53.582;9.946;2022-07-21T05:30:04;24.00;71.80
5408;DHT22;2727;53.582;9.946;2022-07-21T05:31:03;24.00;71.60
5408;DHT22;2727;53.582;9.946;2022-07-21T05:32:01;24.00;71.40
5408;DHT22;2727;53.582;9.946;2022-07-21T05:33:00;24.00;71.80
5408;DHT22;2727;53.582;9.946;2022-07-21T05:33:59;24.00;72.00
5408;DHT22;2727;53.582;9.946;2022-07-21T05:34:58;24.00;71.80
5408;DHT22;2727;53.582;9.946;2022-07-21T05:35:57;24.00;71.60
5408;DHT22;2727;53.582;9.946;2022-07-21T05:36:55;24.00;71.50
5408;DHT22;2727;53.582;9.946;2022-07-21T05:37:54;23.90;71.60
5408;DHT22;2727;53.582;9.946;2022-07-21T05:38:52;24.00;71.70
5408;DHT22;2727;53.582;9.946;2022-07-21T05:39:51;23.90;71.60
5408;DHT22;2727;53.582;9.946;2022-07-21T05:40:49;23.90;71.70
5408;DHT22;2727;53.582;9.946;2022-07-21T05:41:47;23.90;71.70
5408;DHT22;2727;53.582;9.946;2022-07-21T05:42:46;23.90;71.70
5408;DHT22;2727;53.582;9.946;2022-07-21T05:43:44;23.90;71.70
5408;DHT22;2727;53.582;9.946;2022-07-21T05:44:43;23.90;71.70
5408;DHT22;2727;53.582;9.946;2022-07-21T05:45:41;23.90;71.70
5408;DHT22;2727;53.582;9.946;2022-07-21T05:46:40;23.90;71.70
5408;DHT22;2727;53.582;9.946;2022-07-21T05:47:38;23.90;71.60
5408;DHT22;2727;53.582;9.946;2022-07-21T05:48:37;23.90;71.60
5408;DHT22;2727;53.582;9.946;2022-07-21T05:49:36;23.90;71.70
5408;DHT22;2727;53.582;9.946;2022-07-21T05:50:34;23.90;72.30
5408;DHT22;2727;53.582;9.946;2022-07-21T05:51:33;23.90;71.50
5408;DHT22;2727;53.582;9.946;2022-07-21T05:52:31;23.90;71.50
5408;DHT22;2727;53.582;9.946;2022-07-21T05:53:30;23.90;71.50
5408;DHT22;2727;53.582;9.946;2022-07-21T05:54:28;23.90;71.40
5408;DHT22;2727;53.582;9.946;2022-07-21T05:55:27;23.90;71.50
5408;DHT22;2727;53.582;9.946;2022-07-21T05:56:25;23.90;71.50
5408;DHT22;2727;53.582;9.946;2022-07-21T05:57:24;23.90;72.20
5408;DHT22;2727;53.582;9.946;2022-07-21T05:58:22;23.90;71.40
5408;DHT22;2727;53.582;9.946;2022-07-21T05:59:22;23.90;71.40
5408;DHT22;2727;53.582;9.946;2022-07-21T06:00:20;23.90;71.50
5408;DHT22;2727;53.582;9.946;2022-07-21T06:01:19;23.90;71.40
5408;DHT22;2727;53.582;9.946;2022-07-21T06:02:18;23.90;71.40
5408;DHT22;2727;53.582;9.946;2022-07-21T06:03:16;23.90;71.40
5408;DHT22;2727;53.582;9.946;2022-07-21T06:04:14;23.90;71.40
5408;DHT22;2727;53.582;9.946;2022-07-21T06:05:13;23.90;71.40
5408;DHT22;2727;53.582;9.946;2022-07-21T06:06:12;23.90;71.40
5408;DHT22;2727;53.582;9.946;2022-07-21T06:07:11;23.90;71.30
5408;DHT22;2727;53.582;9.946;2022-07-21T06:08:10;23.90;71.20
5408;DHT22;2727;53.582;9.946;2022-07-21T06:09:08;23.90;71.20
5408;DHT22;2727;53.582;9.946;2022-07-21T06:10:07;23.90;71.20
5408;DHT22;2727;53.582;9.946;2022-07-21T06:11:06;23.90;71.20
5408;DHT22;2727;53.582;9.946;2022-07-21T06:12:05;23.90;71.20
5408;DHT22;2727;53.582;9.946;2022-07-21T06:13:03;23.90;71.90
5408;DHT22;2727;53.582;9.946;2022-07-21T06:14:03;23.90;71.20
5408;DHT22;2727;53.582;9.946;2022-07-21T06:15:01;23.90;71.30
5408;DHT22;2727;53.582;9.946;2022-07-21T06:15:59;23.90;71.20
5408;DHT22;2727;53.582;9.946;2022-07-21T06:16:58;23.90;71.20
5408;DHT22;2727;53.582;9.946;2022-07-21T06:17:57;23.90;71.20
5408;DHT22;2727;53.582;9.946;2022-07-21T06:18:55;23.90;71.20
5408;DHT22;2727;53.582;9.946;2022-07-21T06:19:53;23.90;71.20
5408;DHT22;2727;53.582;9.946;2022-07-21T06:20:52;23.90;71.20
5408;DHT22;2727;53.582;9.946;2022-07-21T06:21:51;23.90;71.20
5408;DHT22;2727;53.582;9.946;2022-07-21T06:22:49;23.90;71.20
5408;DHT22;2727;53.582;9.946;2022-07-21T06:23:48;23.90;71.20
5408;DHT22;2727;53.582;9.946;2022-07-21T06:24:46;23.90;71.20
5408;DHT22;2727;53.582;9.946;2022-07-21T06:25:45;23.90;71.20
5408;DHT22;2727;53.582;9.946;2022-07-21T06:26:43;23.90;71.20
5408;DHT22;2727;53.582;9.946;2022-07-21T06:27:42;23.90;71.20
5408;DHT22;2727;53.582;9.946;2022-07-21T06:28:40;23.90;71.20
5408;DHT22;2727;53.582;9.946;2022-07-21T06:29:39;23.90;71.20
5408;DHT22;2727;53.582;9.946;2022-07-21T06:30:38;23.90;71.20